createdAt,value
2017-08-26T00:03:00.057Z,97147.84
2017-08-26T00:07:47.009Z,97135.66
2017-08-26T00:12:33.631Z,97148.84
2017-08-26T00:17:20.363Z,97163.34
2017-08-26T00:22:07.042Z,97160.22
2017-08-26T00:26:53.737Z,97160.69
2017-08-26T00:31:40.395Z,97152.08
2017-08-26T00:36:27.048Z,97151.95
2017-08-26T00:41:13.719Z,97162.30
2017-08-26T00:46:00.457Z,97161.45
2017-08-26T00:50:47.188Z,97159.46
2017-08-26T00:55:33.949Z,97147.61
2017-08-26T01:00:20.603Z,97150.60
2017-08-26T01:05:07.241Z,97160.28
2017-08-26T01:09:53.884Z,97164.80
2017-08-26T01:14:40.528Z,97157.03
2017-08-26T01:19:27.173Z,97162.83
2017-08-26T01:24:13.838Z,97159.86
2017-08-26T01:29:00.492Z,97160.69
2017-08-26T01:33:47.138Z,97162.93
2017-08-26T01:38:33.833Z,97169.95
2017-08-26T01:43:20.821Z,97163.81
2017-08-26T01:48:07.484Z,97154.88
2017-08-26T01:52:54.283Z,97140.02
2017-08-26T01:57:40.916Z,97146.67
2017-08-26T02:02:27.613Z,97143.59
2017-08-26T02:07:14.407Z,97155.83
2017-08-26T02:12:01.215Z,97174.00
2017-08-26T02:16:47.939Z,97189.62
2017-08-26T02:21:34.925Z,97190.58
2017-08-26T02:26:21.817Z,97201.91
2017-08-26T02:31:08.553Z,97206.97
2017-08-26T02:35:55.233Z,97212.98
2017-08-26T02:40:42.025Z,97209.14
2017-08-26T02:45:28.756Z,97212.23
2017-08-26T02:50:15.757Z,97211.01
2017-08-26T02:55:02.407Z,97217.02
2017-08-26T02:59:49.069Z,97222.50
2017-08-26T03:04:35.756Z,97237.38
2017-08-26T03:09:22.447Z,97247.13
2017-08-26T03:14:09.193Z,97235.59
2017-08-26T03:18:55.853Z,97217.16
2017-08-26T03:23:42.617Z,97239.56
2017-08-26T03:28:29.254Z,97245.51
2017-08-26T03:33:16.243Z,97244.59
2017-08-26T03:38:02.997Z,97249.30
2017-08-26T03:42:49.741Z,97240.06
2017-08-26T03:47:36.426Z,97237.93
2017-08-26T03:52:23.131Z,97235.94
2017-08-26T03:57:09.774Z,97230.17
2017-08-26T04:01:56.481Z,97244.24
2017-08-26T04:06:43.159Z,97236.33
2017-08-26T04:11:30.183Z,97238.34
2017-08-26T04:16:16.825Z,97243.92
2017-08-26T04:21:03.500Z,97237.27
2017-08-26T04:25:50.153Z,97236.27
2017-08-26T04:30:36.834Z,97233.13
2017-08-26T04:35:23.454Z,97234.58
2017-08-26T04:40:10.128Z,97232.95
2017-08-26T04:44:57.084Z,97242.36
2017-08-26T04:49:43.734Z,97236.47
2017-08-26T04:54:30.402Z,97237.31
2017-08-26T04:59:17.089Z,97239.59
2017-08-26T05:04:03.801Z,97242.45
2017-08-26T05:08:50.420Z,97241.86
2017-08-26T05:13:37.912Z,97252.77
2017-08-26T05:18:24.636Z,97249.58
2017-08-26T05:23:11.306Z,97255.09
2017-08-26T05:27:57.969Z,97248.91
2017-08-26T05:32:44.823Z,97256.80
2017-08-26T05:37:31.484Z,97258.01
2017-08-26T05:42:18.175Z,97258.68
2017-08-26T05:47:04.833Z,97259.05
2017-08-26T05:51:51.827Z,97268.36
2017-08-26T05:56:38.469Z,97262.52
2017-08-26T06:01:25.633Z,97259.05
2017-08-26T06:06:12.425Z,97261.84
2017-08-26T06:10:59.196Z,97237.64
2017-08-26T06:15:45.890Z,97259.00
2017-08-26T06:20:32.553Z,97264.55
2017-08-26T06:25:19.241Z,97268.52
2017-08-26T06:30:06.198Z,97266.08
2017-08-26T06:34:52.845Z,97264.82
2017-08-26T06:39:39.973Z,97256.92
2017-08-26T06:44:27.425Z,97264.23
2017-08-26T06:49:14.053Z,97263.75
2017-08-26T06:54:00.740Z,97261.51
2017-08-26T06:58:47.664Z,97265.34
2017-08-26T07:03:34.310Z,97259.84
2017-08-26T07:08:21.279Z,97253.86
2017-08-26T07:13:07.869Z,97260.53
2017-08-26T07:17:54.505Z,97262.83
2017-08-26T07:22:41.150Z,97268.05
2017-08-26T07:27:27.773Z,97273.80
2017-08-26T07:32:14.480Z,97267.94
2017-08-26T07:37:01.104Z,97269.70
2017-08-26T07:41:48.163Z,97272.19
2017-08-26T07:46:34.817Z,97267.89
2017-08-26T07:51:21.461Z,97275.70
2017-08-26T07:56:08.165Z,97272.68
2017-08-26T08:00:54.833Z,97276.20
2017-08-26T08:05:41.482Z,97270.99
2017-08-26T08:10:28.187Z,97275.69
2017-08-26T08:15:14.805Z,97278.14
2017-08-26T08:20:01.790Z,97269.47
2017-08-26T08:24:48.496Z,97282.84
2017-08-26T08:29:35.168Z,97287.27
2017-08-26T08:34:21.813Z,97289.20
2017-08-26T08:39:08.480Z,97281.27
2017-08-26T08:43:55.177Z,97292.48
2017-08-26T08:48:41.846Z,97283.39
2017-08-26T08:53:28.779Z,97280.71
2017-08-26T08:58:15.398Z,97285.95
2017-08-26T09:03:02.016Z,97289.95
2017-08-26T09:07:48.729Z,97279.13
2017-08-26T09:12:35.411Z,97275.85
2017-08-26T09:17:22.295Z,97274.04
2017-08-26T09:22:09.024Z,97274.58
2017-08-26T09:26:55.775Z,97283.42
2017-08-26T09:31:42.439Z,97282.08
2017-08-26T09:36:29.555Z,97282.69
2017-08-26T09:41:16.201Z,97280.30
2017-08-26T09:46:03.129Z,97273.52
2017-08-26T09:50:49.753Z,97263.78
2017-08-26T09:55:36.815Z,97257.96
2017-08-26T10:00:23.432Z,97252.81
2017-08-26T10:05:10.194Z,97249.28
2017-08-26T10:09:56.937Z,97245.42
2017-08-26T10:14:43.769Z,97234.55
2017-08-26T10:19:30.409Z,97225.22
2017-08-26T10:24:17.028Z,97226.17
2017-08-26T10:29:03.725Z,97218.58
2017-08-26T10:33:50.774Z,97218.09
2017-08-26T10:38:37.413Z,97213.36
2017-08-26T10:43:25.259Z,97214.27
2017-08-26T10:48:11.900Z,97202.20
2017-08-26T10:52:58.546Z,97193.00
2017-08-26T10:57:45.200Z,97188.63
2017-08-26T11:02:31.835Z,97195.28
2017-08-26T11:07:18.841Z,97193.84
2017-08-26T11:12:05.541Z,97191.28
2017-08-26T11:16:52.473Z,97195.05
2017-08-26T11:21:39.142Z,97190.96
2017-08-26T11:26:25.808Z,97183.94
2017-08-26T11:31:12.578Z,97181.72
2017-08-26T11:35:59.233Z,97182.32
2017-08-26T11:40:45.987Z,97175.34
2017-08-26T11:45:32.669Z,97173.13
2017-08-26T11:50:19.570Z,97166.44
2017-08-26T11:55:06.246Z,97161.89
2017-08-26T11:59:53.357Z,97157.00
2017-08-26T12:04:40.455Z,97157.38
2017-08-26T12:09:27.385Z,97150.21
2017-08-26T12:14:14.060Z,97146.74
2017-08-26T12:19:00.723Z,97146.78
2017-08-26T12:23:47.740Z,97145.80
2017-08-26T12:28:34.413Z,97136.82
2017-08-26T12:33:21.117Z,97133.23
2017-08-26T12:38:07.792Z,97140.92
2017-08-26T12:42:54.612Z,97146.95
2017-08-26T12:47:41.293Z,97134.33
2017-08-26T12:52:28.289Z,97131.72
2017-08-26T12:57:14.983Z,97121.34
2017-08-26T13:02:01.650Z,97122.02
2017-08-26T13:06:49.024Z,97115.13
2017-08-26T13:11:35.744Z,97117.91
2017-08-26T13:16:22.430Z,97106.91
2017-08-26T13:21:09.072Z,97101.48
2017-08-26T13:25:55.720Z,97093.81
2017-08-26T13:30:42.370Z,97092.27
2017-08-26T13:35:29.120Z,97091.50
2017-08-26T13:40:15.756Z,97089.06
2017-08-26T13:45:02.448Z,97081.23
2017-08-26T13:49:49.407Z,97072.13
2017-08-26T13:54:36.072Z,97068.56
2017-08-26T13:59:22.743Z,97065.27
2017-08-26T14:04:09.413Z,97057.55
2017-08-26T14:08:56.150Z,97058.86
2017-08-26T14:13:42.821Z,97064.47
2017-08-26T14:18:29.884Z,97057.48
2017-08-26T14:23:16.568Z,97046.88
2017-08-26T14:28:03.208Z,97053.00
2017-08-26T14:32:49.983Z,97052.13
2017-08-26T14:37:36.796Z,97048.38
2017-08-26T14:42:23.485Z,97039.19
2017-08-26T14:47:10.191Z,97044.30
2017-08-26T14:51:56.908Z,97035.77
2017-08-26T14:56:43.589Z,97028.89
2017-08-26T15:01:30.600Z,97023.83
2017-08-26T15:06:17.359Z,97027.28
2017-08-26T15:11:04.052Z,97020.66
2017-08-26T15:15:50.750Z,97011.84
2017-08-26T15:20:37.393Z,97012.70
2017-08-26T15:25:24.037Z,97002.05
2017-08-26T15:30:10.711Z,96999.81
2017-08-26T15:34:57.666Z,97004.50
2017-08-26T15:39:44.319Z,96994.30
2017-08-26T15:44:30.978Z,97001.42
2017-08-26T15:49:17.654Z,97004.27
2017-08-26T15:54:05.074Z,96995.23
2017-08-26T15:58:51.738Z,96996.88
2017-08-26T16:03:38.388Z,96992.10
2017-08-26T16:08:25.330Z,96987.27
2017-08-26T16:13:11.966Z,96990.46
2017-08-26T16:17:58.649Z,96981.04
2017-08-26T16:22:45.299Z,96978.78
2017-08-26T16:27:32.137Z,96976.22
2017-08-26T16:32:19.437Z,96973.66
2017-08-26T16:37:06.450Z,96971.12
2017-08-26T16:41:53.124Z,96958.09
2017-08-26T16:46:39.786Z,96964.09
2017-08-26T16:51:26.448Z,96974.14
2017-08-26T16:56:13.133Z,96973.44
2017-08-26T17:01:00.098Z,96988.72
2017-08-26T17:05:46.706Z,96981.05
2017-08-26T17:10:33.370Z,96977.41
2017-08-26T17:15:20.022Z,96974.44
2017-08-26T17:20:07.080Z,96973.69
2017-08-26T17:24:53.745Z,96978.52
2017-08-26T17:29:40.521Z,96970.67
2017-08-26T17:34:27.196Z,96969.67
2017-08-26T17:39:14.073Z,96962.31
2017-08-26T17:44:00.776Z,96962.55
2017-08-26T17:48:47.811Z,96962.08
2017-08-26T17:53:34.578Z,96974.91
2017-08-26T17:58:21.332Z,96974.21
2017-08-26T18:03:08.090Z,96976.01
2017-08-26T18:07:54.733Z,96969.44
2017-08-26T18:12:41.391Z,96982.26
2017-08-26T18:17:28.098Z,96997.03
2017-08-26T18:22:14.797Z,97019.41
2017-08-26T18:27:01.984Z,97022.80
2017-08-26T18:31:48.693Z,97034.00
2017-08-26T18:36:35.392Z,97039.70
2017-08-26T18:41:22.083Z,97058.70
2017-08-26T18:46:08.704Z,97054.42
2017-08-26T18:50:55.693Z,97056.31
2017-08-26T18:55:42.345Z,97065.30
2017-08-26T19:00:29.032Z,97072.53
2017-08-26T19:05:15.715Z,97070.88
2017-08-26T19:10:02.422Z,97075.14
2017-08-26T19:14:49.117Z,97087.26
2017-08-26T19:19:36.165Z,97100.73
2017-08-26T19:24:22.874Z,97104.96
2017-08-26T19:29:09.618Z,97107.44
2017-08-26T19:33:56.413Z,97113.97
2017-08-26T19:38:43.165Z,97109.50
2017-08-26T19:43:30.374Z,97102.17
2017-08-26T19:48:17.138Z,97104.47
2017-08-26T19:53:04.151Z,97111.05
2017-08-26T19:57:50.858Z,97112.02
2017-08-26T20:02:37.643Z,97120.08
2017-08-26T20:07:24.321Z,97130.69
2017-08-26T20:12:11.081Z,97145.48
2017-08-26T20:16:57.782Z,97147.25
2017-08-26T20:21:44.565Z,97142.31
2017-08-26T20:26:31.611Z,97146.80
2017-08-26T20:31:18.355Z,97161.77
2017-08-26T20:36:05.003Z,97165.30
2017-08-26T20:40:51.650Z,97163.98
2017-08-26T20:45:38.468Z,97164.02
2017-08-26T20:50:25.167Z,97162.21
2017-08-26T20:55:11.836Z,97163.78
2017-08-26T20:59:58.517Z,97166.80
2017-08-26T21:04:45.705Z,97166.84
2017-08-26T21:09:32.386Z,97168.17
2017-08-26T21:14:19.067Z,97174.25
2017-08-26T21:19:06.071Z,97176.83
2017-08-26T21:23:52.774Z,97179.87
2017-08-26T21:28:39.447Z,97177.38
2017-08-26T21:33:26.136Z,97172.02
2017-08-26T21:38:12.778Z,97168.06
2017-08-26T21:42:59.429Z,97167.22
2017-08-26T21:47:46.411Z,97179.91
2017-08-26T21:52:33.816Z,97176.73
2017-08-26T21:57:20.471Z,97165.04
2017-08-26T22:02:07.191Z,97157.12
2017-08-26T22:06:53.884Z,97159.79
2017-08-26T22:11:40.557Z,97157.41
2017-08-26T22:16:27.260Z,97157.47
2017-08-26T22:21:13.943Z,97152.23
2017-08-26T22:26:00.994Z,97148.14
2017-08-26T22:30:47.669Z,97151.66
2017-08-26T22:35:34.442Z,97152.02
2017-08-26T22:40:21.182Z,97153.42
2017-08-26T22:45:07.861Z,97149.69
2017-08-26T22:49:54.509Z,97130.31
2017-08-26T22:54:41.595Z,97136.56
2017-08-26T22:59:28.222Z,97131.12
2017-08-26T23:04:14.837Z,97130.89
2017-08-26T23:09:01.515Z,97125.29
2017-08-26T23:13:48.179Z,97133.86
2017-08-26T23:18:34.927Z,97130.41
2017-08-26T23:23:21.629Z,97131.38
2017-08-26T23:28:08.250Z,97127.51
2017-08-26T23:32:55.207Z,97126.71
2017-08-26T23:37:41.937Z,97120.09
2017-08-26T23:42:28.648Z,97117.61
2017-08-26T23:47:15.305Z,97109.72
2017-08-26T23:52:08.927Z,97110.27
2017-08-26T23:56:55.550Z,97108.57
